sensor_id;sensor_type;location;lat;lon;timestamp;pressure;altitude;pressure_sealevel;temperature;humidity
12868;BME280;33517;49.866;8.320;2023-04-01T00:02:40;98793.91;;;10.89;82.66
12868;BME280;33517;49.866;8.320;2023-04-01T00:05:32;98791.25;;;10.89;82.37
12868;BME280;33517;49.866;8.320;2023-04-01T00:08:24;98792.69;;;10.85;82.48
12868;BME280;33517;49.866;8.320;2023-04-01T00:11:18;98781.34;;;10.78;82.31
12868;BME280;33517;49.866;8.320;2023-04-01T00:14:10;98782.38;;;10.77;82.56
12868;BME280;33517;49.866;8.320;2023-04-01T00:17:02;98779.75;;;10.77;82.55
12868;BME280;33517;49.866;8.320;2023-04-01T00:19:55;98778.09;;;10.82;82.06
12868;BME280;33517;49.866;8.320;2023-04-01T00:22:47;98771.81;;;10.83;81.93
12868;BME280;33517;49.866;8.320;2023-04-01T00:25:39;98770.22;;;10.82;81.85
12868;BME280;33517;49.866;8.320;2023-04-01T00:28:33;98767.78;;;10.81;81.61
12868;BME280;33517;49.866;8.320;2023-04-01T00:31:26;98758.25;;;10.86;81.45
12868;BME280;33517;49.866;8.320;2023-04-01T00:34:18;98776.25;;;10.89;80.69
12868;BME280;33517;49.866;8.320;2023-04-01T00:37:10;98768.16;;;10.91;80.85
12868;BME280;33517;49.866;8.320;2023-04-01T00:40:04;98775.44;;;10.95;80.57
12868;BME280;33517;49.866;8.320;2023-04-01T00:42:57;98755.81;;;10.98;79.52
12868;BME280;33517;49.866;8.320;2023-04-01T00:45:51;98765.72;;;10.96;80.17
12868;BME280;33517;49.866;8.320;2023-04-01T00:48:45;98756.00;;;10.96;80.02
12868;BME280;33517;49.866;8.320;2023-04-01T00:51:38;98756.41;;;10.93;79.94
12868;BME280;33517;49.866;8.320;2023-04-01T00:54:33;98758.22;;;10.93;79.12
12868;BME280;33517;49.866;8.320;2023-04-01T00:57:30;98750.16;;;10.94;79.44
12868;BME280;33517;49.866;8.320;2023-04-01T01:00:24;98747.31;;;10.89;79.53
12868;BME280;33517;49.866;8.320;2023-04-01T01:03:18;98749.94;;;10.89;79.69
12868;BME280;33517;49.866;8.320;2023-04-01T01:06:18;98747.75;;;10.86;79.63
12868;BME280;33517;49.866;8.320;2023-04-01T01:09:25;98757.25;;;10.87;79.53
12868;BME280;33517;49.866;8.320;2023-04-01T01:12:23;98754.00;;;10.85;79.65
12868;BME280;33517;49.866;8.320;2023-04-01T01:15:21;98762.09;;;10.84;79.99
12868;BME280;33517;49.866;8.320;2023-04-01T01:18:22;98755.03;;;10.84;79.68
12868;BME280;33517;49.866;8.320;2023-04-01T01:21:42;98755.25;;;10.83;79.77
12868;BME280;33517;49.866;8.320;2023-04-01T01:24:49;98749.78;;;10.78;79.96
12868;BME280;33517;49.866;8.320;2023-04-01T01:27:49;98759.09;;;10.74;80.70
12868;BME280;33517;49.866;8.320;2023-04-01T01:30:51;98752.44;;;10.71;80.81
12868;BME280;33517;49.866;8.320;2023-04-01T01:33:53;98754.03;;;10.72;80.89
12868;BME280;33517;49.866;8.320;2023-04-01T01:36:55;98752.22;;;10.73;80.99
12868;BME280;33517;49.866;8.320;2023-04-01T01:39:53;98748.38;;;10.75;80.91
12868;BME280;33517;49.866;8.320;2023-04-01T01:42:49;98758.31;;;10.73;81.06
12868;BME280;33517;49.866;8.320;2023-04-01T01:45:45;98752.84;;;10.75;81.13
12868;BME280;33517;49.866;8.320;2023-04-01T01:48:38;98748.56;;;10.74;81.22
12868;BME280;33517;49.866;8.320;2023-04-01T01:51:31;98749.38;;;10.74;81.26
12868;BME280;33517;49.866;8.320;2023-04-01T01:54:25;98756.88;;;10.77;80.86
12868;BME280;33517;49.866;8.320;2023-04-01T01:57:19;98747.75;;;10.80;80.65
12868;BME280;33517;49.866;8.320;2023-04-01T02:00:12;98749.56;;;10.79;80.77
12868;BME280;33517;49.866;8.320;2023-04-01T02:03:05;98750.81;;;10.70;81.08
12868;BME280;33517;49.866;8.320;2023-04-01T02:05:59;98767.63;;;10.69;81.36
12868;BME280;33517;49.866;8.320;2023-04-01T02:08:55;98767.41;;;10.71;82.03
12868;BME280;33517;49.866;8.320;2023-04-01T02:11:51;98775.09;;;10.72;81.81
12868;BME280;33517;49.866;8.320;2023-04-01T02:14:45;98770.03;;;10.71;81.74
12868;BME280;33517;49.866;8.320;2023-04-01T02:17:42;98771.69;;;10.65;82.14
12868;BME280;33517;49.866;8.320;2023-04-01T02:20:36;98775.13;;;10.59;82.71
12868;BME280;33517;49.866;8.320;2023-04-01T02:23:29;98786.28;;;10.48;83.63
12868;BME280;33517;49.866;8.320;2023-04-01T02:26:22;98784.06;;;10.39;84.89
12868;BME280;33517;49.866;8.320;2023-04-01T02:29:18;98776.38;;;10.31;85.53
12868;BME280;33517;49.866;8.320;2023-04-01T02:32:12;98783.22;;;10.32;85.91
12868;BME280;33517;49.866;8.320;2023-04-01T02:35:07;98788.31;;;10.33;85.91
12868;BME280;33517;49.866;8.320;2023-04-01T02:38:01;98788.31;;;10.33;86.17
12868;BME280;33517;49.866;8.320;2023-04-01T02:40:58;98785.69;;;10.33;86.25
12868;BME280;33517;49.866;8.320;2023-04-01T02:43:51;98786.88;;;10.31;86.67
12868;BME280;33517;49.866;8.320;2023-04-01T02:46:44;98781.41;;;10.32;86.42
12868;BME280;33517;49.866;8.320;2023-04-01T02:49:36;98780.19;;;10.28;86.65
12868;BME280;33517;49.866;8.320;2023-04-01T02:52:29;98773.13;;;10.29;86.35
12868;BME280;33517;49.866;8.320;2023-04-01T02:55:21;98777.56;;;10.28;86.34
12868;BME280;33517;49.866;8.320;2023-04-01T02:58:13;98766.28;;;10.28;86.80
12868;BME280;33517;49.866;8.320;2023-04-01T03:01:04;98776.16;;;10.32;86.24
12868;BME280;33517;49.866;8.320;2023-04-01T03:03:58;98774.34;;;10.39;85.09
12868;BME280;33517;49.866;8.320;2023-04-01T03:06:49;98777.38;;;10.43;85.08
12868;BME280;33517;49.866;8.320;2023-04-01T03:09:41;98774.72;;;10.49;84.59
12868;BME280;33517;49.866;8.320;2023-04-01T03:12:33;98771.06;;;10.57;84.48
12868;BME280;33517;49.866;8.320;2023-04-01T03:15:25;98779.56;;;10.59;84.20
12868;BME280;33517;49.866;8.320;2023-04-01T03:18:17;98785.22;;;10.62;83.71
12868;BME280;33517;49.866;8.320;2023-04-01T03:21:15;98772.88;;;10.63;84.05
12868;BME280;33517;49.866;8.320;2023-04-01T03:24:07;98766.63;;;10.64;83.31
12868;BME280;33517;49.866;8.320;2023-04-01T03:26:59;98776.34;;;10.63;83.50
12868;BME280;33517;49.866;8.320;2023-04-01T03:29:51;98767.03;;;10.61;84.35
12868;BME280;33517;49.866;8.320;2023-04-01T03:32:42;98776.72;;;10.60;84.10
12868;BME280;33517;49.866;8.320;2023-04-01T03:35:34;98775.31;;;10.64;83.94
12868;BME280;33517;49.866;8.320;2023-04-01T03:38:27;98776.94;;;10.65;83.68
12868;BME280;33517;49.866;8.320;2023-04-01T03:41:19;98778.16;;;10.69;83.00
12868;BME280;33517;49.866;8.320;2023-04-01T03:44:12;98781.16;;;10.73;82.70
12868;BME280;33517;49.866;8.320;2023-04-01T03:47:04;98768.00;;;10.73;82.78
12868;BME280;33517;49.866;8.320;2023-04-01T03:49:55;98768.22;;;10.71;82.87
12868;BME280;33517;49.866;8.320;2023-04-01T03:52:47;98777.94;;;10.71;83.00
12868;BME280;33517;49.866;8.320;2023-04-01T03:55:41;98773.50;;;10.71;83.37
12868;BME280;33517;49.866;8.320;2023-04-01T03:58:32;98776.50;;;10.75;83.57
12868;BME280;33517;49.866;8.320;2023-04-01T04:01:24;98777.13;;;10.70;83.90
12868;BME280;33517;49.866;8.320;2023-04-01T04:04:16;98787.03;;;10.68;84.01
12868;BME280;33517;49.866;8.320;2023-04-01T04:07:08;98776.31;;;10.70;83.74
12868;BME280;33517;49.866;8.320;2023-04-01T04:10:00;98775.91;;;10.73;83.93
12868;BME280;33517;49.866;8.320;2023-04-01T04:12:53;98772.06;;;10.75;83.73
12868;BME280;33517;49.866;8.320;2023-04-01T04:15:45;98771.03;;;10.76;83.01
12868;BME280;33517;49.866;8.320;2023-04-01T04:18:37;98776.91;;;10.78;83.14
12868;BME280;33517;49.866;8.320;2023-04-01T04:21:29;98773.25;;;10.79;82.93
12868;BME280;33517;49.866;8.320;2023-04-01T04:24:21;98773.84;;;10.81;82.81
12868;BME280;33517;49.866;8.320;2023-04-01T04:27:13;98775.66;;;10.87;82.92
12868;BME280;33517;49.866;8.320;2023-04-01T04:30:07;98780.13;;;10.87;81.82
12868;BME280;33517;49.866;8.320;2023-04-01T04:32:59;98774.06;;;10.86;82.10
12868;BME280;33517;49.866;8.320;2023-04-01T04:35:54;98778.28;;;10.87;82.69
12868;BME280;33517;49.866;8.320;2023-04-01T04:38:47;98767.97;;;10.92;82.46
12868;BME280;33517;49.866;8.320;2023-04-01T04:41:41;98780.75;;;10.89;81.90
12868;BME280;33517;49.866;8.320;2023-04-01T04:44:32;98777.28;;;10.88;81.81
12868;BME280;33517;49.866;8.320;2023-04-01T04:47:26;98778.31;;;10.81;82.66
12868;BME280;33517;49.866;8.320;2023-04-01T04:50:17;98784.41;;;10.75;83.34
12868;BME280;33517;49.866;8.320;2023-04-01T04:53:10;98773.88;;;10.75;83.43
12868;BME280;33517;49.866;8.320;2023-04-01T04:56:02;98775.50;;;10.69;83.90
12868;BME280;33517;49.866;8.320;2023-04-01T04:58:54;98775.91;;;10.66;84.16
12868;BME280;33517;49.866;8.320;2023-04-01T05:01:46;98779.56;;;10.65;84.46
12868;BME280;33517;49.866;8.320;2023-04-01T05:04:39;98786.84;;;10.63;84.17
12868;BME280;33517;49.866;8.320;2023-04-01T05:07:30;98779.78;;;10.64;84.25
12868;BME280;33517;49.866;8.320;2023-04-01T05:10:22;98775.13;;;10.66;83.79
12868;BME280;33517;49.866;8.320;2023-04-01T05:13:14;98785.22;;;10.69;82.90
12868;BME280;33517;49.866;8.320;2023-04-01T05:16:08;98782.97;;;10.72;82.99
12868;BME280;33517;49.866;8.320;2023-04-01T05:19:00;98780.34;;;10.79;82.77
12868;BME280;33517;49.866;8.320;2023-04-01T05:21:53;98777.94;;;10.77;83.52
12868;BME280;33517;49.866;8.320;2023-04-01T05:24:45;98772.25;;;10.74;83.62
12868;BME280;33517;49.866;8.320;2023-04-01T05:27:37;98781.38;;;10.71;83.31
12868;BME280;33517;49.866;8.320;2023-04-01T05:30:29;98778.94;;;10.70;83.05
12868;BME280;33517;49.866;8.320;2023-04-01T05:33:21;98768.22;;;10.71;83.09
12868;BME280;33517;49.866;8.320;2023-04-01T05:36:14;98766.38;;;10.72;82.95
12868;BME280;33517;49.866;8.320;2023-04-01T05:39:08;98769.44;;;10.75;83.00
12868;BME280;33517;49.866;8.320;2023-04-01T05:42:00;98772.84;;;10.76;81.86
12868;BME280;33517;49.866;8.320;2023-04-01T05:44:52;98766.56;;;10.83;81.55
12868;BME280;33517;49.866;8.320;2023-04-01T05:47:45;98764.13;;;10.88;80.91
12868;BME280;33517;49.866;8.320;2023-04-01T05:50:39;98762.88;;;10.91;80.48
12868;BME280;33517;49.866;8.320;2023-04-01T05:53:31;98760.84;;;10.93;80.24
12868;BME280;33517;49.866;8.320;2023-04-01T05:56:25;98763.50;;;10.93;80.86
12868;BME280;33517;49.866;8.320;2023-04-01T05:59:17;98768.16;;;10.97;80.28
12868;BME280;33517;49.866;8.320;2023-04-01T06:02:09;98759.44;;;10.97;80.16
12868;BME280;33517;49.866;8.320;2023-04-01T06:05:10;98759.25;;;10.98;80.01
12868;BME280;33517;49.866;8.320;2023-04-01T06:08:10;98750.31;;;11.06;80.15
12868;BME280;33517;49.866;8.320;2023-04-01T06:11:13;98753.53;;;11.08;80.00
12868;BME280;33517;49.866;8.320;2023-04-01T06:14:20;98753.31;;;11.09;79.95
12868;BME280;33517;49.866;8.320;2023-04-01T06:17:26;98763.03;;;11.16;79.79
12868;BME280;33517;49.866;8.320;2023-04-01T06:20:23;98752.06;;;11.19;79.94
12868;BME280;33517;49.866;8.320;2023-04-01T06:23:39;98756.13;;;11.21;79.24
12868;BME280;33517;49.866;8.320;2023-04-01T06:26:39;98757.56;;;11.17;79.51
12868;BME280;33517;49.866;8.320;2023-04-01T06:29:49;98754.53;;;11.13;79.95
12868;BME280;33517;49.866;8.320;2023-04-01T06:32:56;98764.03;;;11.14;79.51
12868;BME280;33517;49.866;8.320;2023-04-01T06:36:05;98769.06;;;11.23;79.50
12868;BME280;33517;49.866;8.320;2023-04-01T06:39:09;98755.91;;;11.23;79.98
12868;BME280;33517;49.866;8.320;2023-04-01T06:45:32;98759.97;;;11.19;80.00
12868;BME280;33517;49.866;8.320;2023-04-01T06:48:36;98758.31;;;11.24;80.55
12868;BME280;33517;49.866;8.320;2023-04-01T06:51:39;98769.44;;;11.33;80.70
12868;BME280;33517;49.866;8.320;2023-04-01T06:54:36;98766.13;;;11.44;80.05
12868;BME280;33517;49.866;8.320;2023-04-01T06:57:33;98760.03;;;11.50;79.56
12868;BME280;33517;49.866;8.320;2023-04-01T07:00:31;98759.78;;;11.58;80.11
12868;BME280;33517;49.866;8.320;2023-04-01T07:03:29;98759.72;;;11.71;79.13
12868;BME280;33517;49.866;8.320;2023-04-01T07:06:27;98758.81;;;11.83;78.67
12868;BME280;33517;49.866;8.320;2023-04-01T07:09:22;98754.63;;;12.25;78.01
12868;BME280;33517;49.866;8.320;2023-04-01T07:12:21;98760.59;;;12.39;76.54
12868;BME280;33517;49.866;8.320;2023-04-01T07:15:20;98749.88;;;12.58;75.64
12868;BME280;33517;49.866;8.320;2023-04-01T07:18:18;98744.75;;;12.63;74.42
12868;BME280;33517;49.866;8.320;2023-04-01T07:21:22;98749.44;;;12.97;74.65
12868;BME280;33517;49.866;8.320;2023-04-01T07:24:18;98744.22;;;13.57;72.43
12868;BME280;33517;49.866;8.320;2023-04-01T07:27:13;98742.25;;;13.41;72.04
12868;BME280;33517;49.866;8.320;2023-04-01T07:30:13;98746.25;;;13.14;72.51
12868;BME280;33517;49.866;8.320;2023-04-01T07:33:11;98763.09;;;12.94;75.26
12868;BME280;33517;49.866;8.320;2023-04-01T07:36:13;98758.31;;;12.85;74.08
12868;BME280;33517;49.866;8.320;2023-04-01T07:39:20;98760.31;;;12.89;74.88
12868;BME280;33517;49.866;8.320;2023-04-01T07:42:22;98755.88;;;13.02;74.49
12868;BME280;33517;49.866;8.320;2023-04-01T07:45:20;98763.81;;;13.38;72.72
12868;BME280;33517;49.866;8.320;2023-04-01T07:48:22;98759.06;;;13.58;71.99
12868;BME280;33517;49.866;8.320;2023-04-01T07:51:22;98758.81;;;13.77;71.11
12868;BME280;33517;49.866;8.320;2023-04-01T07:54:21;98768.56;;;13.77;71.63
12868;BME280;33517;49.866;8.320;2023-04-01T07:57:19;98762.13;;;13.73;71.24
12868;BME280;33517;49.866;8.320;2023-04-01T08:00:15;98771.88;;;13.72;71.50
12868;BME280;33517;49.866;8.320;2023-04-01T08:03:19;98778.81;;;13.26;73.43
12868;BME280;33517;49.866;8.320;2023-04-01T08:06:22;98778.81;;;13.08;74.54
12868;BME280;33517;49.866;8.320;2023-04-01T08:09:22;98783.19;;;12.95;74.96
12868;BME280;33517;49.866;8.320;2023-04-01T08:12:27;98768.72;;;12.98;75.30
12868;BME280;33517;49.866;8.320;2023-04-01T08:15:26;98786.41;;;12.79;75.90
12868;BME280;33517;49.866;8.320;2023-04-01T08:18:26;98787.03;;;12.57;76.69
12868;BME280;33517;49.866;8.320;2023-04-01T08:21:27;98789.34;;;12.47;76.82
12868;BME280;33517;49.866;8.320;2023-04-01T08:24:25;98798.88;;;12.48;78.53
12868;BME280;33517;49.866;8.320;2023-04-01T08:27:23;98797.97;;;12.60;78.43
12868;BME280;33517;49.866;8.320;2023-04-01T08:30:19;98801.78;;;12.64;78.10
12868;BME280;33517;49.866;8.320;2023-04-01T08:33:16;98796.66;;;12.69;77.53
12868;BME280;33517;49.866;8.320;2023-04-01T08:36:14;98790.97;;;12.72;78.75
12868;BME280;33517;49.866;8.320;2023-04-01T08:39:11;98804.59;;;12.87;77.43
12868;BME280;33517;49.866;8.320;2023-04-01T08:42:35;98802.25;;;12.79;77.08
12868;BME280;33517;49.866;8.320;2023-04-01T08:49:08;98807.06;;;12.82;78.68
12868;BME280;33517;49.866;8.320;2023-04-01T08:52:19;98806.44;;;12.87;78.90
12868;BME280;33517;49.866;8.320;2023-04-01T08:55:32;98806.50;;;12.98;78.26
12868;BME280;33517;49.866;8.320;2023-04-01T08:59:08;98808.13;;;12.99;78.84
12868;BME280;33517;49.866;8.320;2023-04-01T09:02:23;98816.84;;;13.00;78.61
12868;BME280;33517;49.866;8.320;2023-04-01T09:05:36;98806.94;;;13.20;78.75
12868;BME280;33517;49.866;8.320;2023-04-01T09:08:38;98813.56;;;13.23;79.05
12868;BME280;33517;49.866;8.320;2023-04-01T09:11:50;98810.50;;;13.26;79.95
12868;BME280;33517;49.866;8.320;2023-04-01T09:15:07;98814.41;;;13.23;81.18
12868;BME280;33517;49.866;8.320;2023-04-01T09:18:33;98828.00;;;13.02;81.81
12868;BME280;33517;49.866;8.320;2023-04-01T09:21:49;98819.13;;;12.96;83.35
12868;BME280;33517;49.866;8.320;2023-04-01T09:28:20;98825.16;;;12.61;86.17
12868;BME280;33517;49.866;8.320;2023-04-01T09:31:25;98826.63;;;12.57;87.16
12868;BME280;33517;49.866;8.320;2023-04-01T09:34:30;98831.69;;;12.58;88.20
12868;BME280;33517;49.866;8.320;2023-04-01T09:37:35;98827.13;;;12.65;88.00
12868;BME280;33517;49.866;8.320;2023-04-01T09:40:37;98833.38;;;12.71;87.06
12868;BME280;33517;49.866;8.320;2023-04-01T09:43:48;98833.28;;;12.84;87.32
12868;BME280;33517;49.866;8.320;2023-04-01T09:47:01;98845.31;;;12.98;86.24
12868;BME280;33517;49.866;8.320;2023-04-01T09:50:35;98844.56;;;13.16;85.69
12868;BME280;33517;49.866;8.320;2023-04-01T09:53:48;98843.22;;;13.25;84.82
12868;BME280;33517;49.866;8.320;2023-04-01T09:57:23;98849.16;;;13.38;84.48
12868;BME280;33517;49.866;8.320;2023-04-01T10:00:34;98848.22;;;13.33;83.15
12868;BME280;33517;49.866;8.320;2023-04-01T10:04:11;98845.13;;;13.54;83.01
12868;BME280;33517;49.866;8.320;2023-04-01T10:11:02;98849.00;;;13.51;83.38
12868;BME280;33517;49.866;8.320;2023-04-01T10:14:10;98853.28;;;13.52;83.78
12868;BME280;33517;49.866;8.320;2023-04-01T10:17:30;98857.69;;;13.88;82.95
12868;BME280;33517;49.866;8.320;2023-04-01T10:20:59;98856.53;;;14.14;81.87
12868;BME280;33517;49.866;8.320;2023-04-01T10:27:49;98858.44;;;13.95;80.33
12868;BME280;33517;49.866;8.320;2023-04-01T10:34:39;98848.56;;;14.02;77.92
12868;BME280;33517;49.866;8.320;2023-04-01T10:37:55;98854.81;;;13.89;78.60
12868;BME280;33517;49.866;8.320;2023-04-01T10:41:30;98851.16;;;13.91;79.41
12868;BME280;33517;49.866;8.320;2023-04-01T10:48:17;98854.03;;;13.89;79.58
12868;BME280;33517;49.866;8.320;2023-04-01T10:51:16;98860.44;;;13.81;80.26
12868;BME280;33517;49.866;8.320;2023-04-01T10:54:36;98856.47;;;13.72;80.76
12868;BME280;33517;49.866;8.320;2023-04-01T10:57:47;98850.59;;;13.70;81.84
12868;BME280;33517;49.866;8.320;2023-04-01T11:01:13;98854.16;;;13.64;81.01
12868;BME280;33517;49.866;8.320;2023-04-01T11:04:51;98861.81;;;13.84;82.11
12868;BME280;33517;49.866;8.320;2023-04-01T11:08:11;98856.16;;;13.80;82.71
12868;BME280;33517;49.866;8.320;2023-04-01T11:11:43;98854.88;;;13.71;83.09
12868;BME280;33517;49.866;8.320;2023-04-01T11:22:13;98875.03;;;13.84;82.21
12868;BME280;33517;49.866;8.320;2023-04-01T11:25:36;98880.06;;;13.56;85.45
12868;BME280;33517;49.866;8.320;2023-04-01T11:28:54;98876.69;;;13.49;85.92
12868;BME280;33517;49.866;8.320;2023-04-01T11:31:58;98890.78;;;13.43;86.66
12868;BME280;33517;49.866;8.320;2023-04-01T11:35:02;98891.22;;;13.22;86.48
12868;BME280;33517;49.866;8.320;2023-04-01T11:38:02;98880.78;;;13.27;88.70
12868;BME280;33517;49.866;8.320;2023-04-01T11:41:08;98877.22;;;12.96;88.59
12868;BME280;33517;49.866;8.320;2023-04-01T11:44:15;98886.28;;;12.82;91.15
12868;BME280;33517;49.866;8.320;2023-04-01T11:47:24;98883.44;;;12.84;92.34
12868;BME280;33517;49.866;8.320;2023-04-01T11:50:30;98887.44;;;13.11;92.96
12868;BME280;33517;49.866;8.320;2023-04-01T11:53:35;98888.22;;;13.36;91.35
12868;BME280;33517;49.866;8.320;2023-04-01T11:56:43;98883.81;;;13.48;90.34
12868;BME280;33517;49.866;8.320;2023-04-01T11:59:59;98884.59;;;13.85;88.97
12868;BME280;33517;49.866;8.320;2023-04-01T12:03:06;98893.25;;;13.92;88.76
12868;BME280;33517;49.866;8.320;2023-04-01T12:06:05;98892.28;;;14.34;87.37
12868;BME280;33517;49.866;8.320;2023-04-01T12:09:04;98894.22;;;14.92;83.70
12868;BME280;33517;49.866;8.320;2023-04-01T12:12:11;98892.25;;;14.99;81.26
12868;BME280;33517;49.866;8.320;2023-04-01T12:15:17;98892.09;;;14.59;81.72
12868;BME280;33517;49.866;8.320;2023-04-01T12:18:18;98900.63;;;14.72;81.75
12868;BME280;33517;49.866;8.320;2023-04-01T12:21:21;98889.03;;;14.32;81.51
12868;BME280;33517;49.866;8.320;2023-04-01T12:24:45;98892.34;;;14.28;82.40
12868;BME280;33517;49.866;8.320;2023-04-01T12:27:42;98899.97;;;14.36;82.68
12868;BME280;33517;49.866;8.320;2023-04-01T12:30:53;98901.19;;;14.51;83.09
12868;BME280;33517;49.866;8.320;2023-04-01T12:33:54;98907.06;;;14.53;81.91
12868;BME280;33517;49.866;8.320;2023-04-01T12:36:55;98910.81;;;14.16;83.60
12868;BME280;33517;49.866;8.320;2023-04-01T12:40:01;98911.03;;;13.85;85.82
12868;BME280;33517;49.866;8.320;2023-04-01T12:43:13;98916.63;;;13.77;87.00
12868;BME280;33517;49.866;8.320;2023-04-01T12:46:15;98919.41;;;13.82;87.76
12868;BME280;33517;49.866;8.320;2023-04-01T12:49:30;98919.03;;;13.97;85.86
12868;BME280;33517;49.866;8.320;2023-04-01T12:52:35;98922.44;;;13.97;85.42
12868;BME280;33517;49.866;8.320;2023-04-01T12:55:36;98923.44;;;14.03;86.30
12868;BME280;33517;49.866;8.320;2023-04-01T12:58:51;98928.97;;;13.83;86.30
12868;BME280;33517;49.866;8.320;2023-04-01T13:02:00;98929.19;;;13.81;87.13
12868;BME280;33517;49.866;8.320;2023-04-01T13:08:42;98925.53;;;14.12;86.24
12868;BME280;33517;49.866;8.320;2023-04-01T13:11:50;98918.09;;;14.50;85.04
12868;BME280;33517;49.866;8.320;2023-04-01T13:15:10;98918.31;;;14.49;83.93
12868;BME280;33517;49.866;8.320;2023-04-01T13:18:18;98920.56;;;14.34;83.92
12868;BME280;33517;49.866;8.320;2023-04-01T13:21:15;98938.91;;;14.47;83.64
12868;BME280;33517;49.866;8.320;2023-04-01T13:24:20;98928.56;;;14.57;82.63
12868;BME280;33517;49.866;8.320;2023-04-01T13:27:17;98934.47;;;14.70;82.49
12868;BME280;33517;49.866;8.320;2023-04-01T13:30:24;98928.84;;;14.78;81.56
12868;BME280;33517;49.866;8.320;2023-04-01T13:33:24;98937.75;;;14.96;81.18
12868;BME280;33517;49.866;8.320;2023-04-01T13:36:26;98939.25;;;14.92;80.35
12868;BME280;33517;49.866;8.320;2023-04-01T13:39:29;98942.44;;;14.82;80.41
12868;BME280;33517;49.866;8.320;2023-04-01T13:42:27;98940.69;;;14.64;80.55
12868;BME280;33517;49.866;8.320;2023-04-01T13:45:24;98936.28;;;14.58;81.12
12868;BME280;33517;49.866;8.320;2023-04-01T13:48:29;98928.81;;;14.55;80.05
12868;BME280;33517;49.866;8.320;2023-04-01T13:51:37;98933.06;;;14.56;80.94
12868;BME280;33517;49.866;8.320;2023-04-01T13:54:42;98930.53;;;14.50;80.64
12868;BME280;33517;49.866;8.320;2023-04-01T13:57:51;98937.06;;;14.47;80.75
12868;BME280;33517;49.866;8.320;2023-04-01T14:00:54;98940.13;;;14.74;80.97
12868;BME280;33517;49.866;8.320;2023-04-01T14:04:03;98945.19;;;14.64;81.63
12868;BME280;33517;49.866;8.320;2023-04-01T14:07:31;98946.13;;;14.69;80.76
12868;BME280;33517;49.866;8.320;2023-04-01T14:10:31;98947.25;;;14.62;79.31
12868;BME280;33517;49.866;8.320;2023-04-01T14:13:31;98950.25;;;14.65;79.75
12868;BME280;33517;49.866;8.320;2023-04-01T14:16:44;98952.22;;;14.82;79.14
12868;BME280;33517;49.866;8.320;2023-04-01T14:19:52;98954.09;;;14.93;78.34
12868;BME280;33517;49.866;8.320;2023-04-01T14:23:05;98957.09;;;14.96;76.92
12868;BME280;33517;49.866;8.320;2023-04-01T14:26:20;98950.06;;;14.90;76.19
12868;BME280;33517;49.866;8.320;2023-04-01T14:29:21;98949.13;;;14.85;76.16
12868;BME280;33517;49.866;8.320;2023-04-01T14:32:25;98951.66;;;14.79;76.06
12868;BME280;33517;49.866;8.320;2023-04-01T14:35:35;98972.28;;;14.48;76.18
12868;BME280;33517;49.866;8.320;2023-04-01T14:38:39;98968.00;;;14.35;77.76
12868;BME280;33517;49.866;8.320;2023-04-01T14:41:46;98979.38;;;14.36;77.77
12868;BME280;33517;49.866;8.320;2023-04-01T14:44:57;98986.72;;;14.34;78.10
12868;BME280;33517;49.866;8.320;2023-04-01T14:47:58;98982.22;;;14.52;77.36
12868;BME280;33517;49.866;8.320;2023-04-01T14:50:53;98982.66;;;14.49;76.89
12868;BME280;33517;49.866;8.320;2023-04-01T14:53:58;98992.41;;;14.49;78.27
12868;BME280;33517;49.866;8.320;2023-04-01T14:56:51;98988.22;;;14.59;78.86
12868;BME280;33517;49.866;8.320;2023-04-01T15:00:00;98990.22;;;14.87;77.80
12868;BME280;33517;49.866;8.320;2023-04-01T15:02:57;98997.78;;;15.02;76.35
12868;BME280;33517;49.866;8.320;2023-04-01T15:05:56;98999.03;;;15.11;76.17
12868;BME280;33517;49.866;8.320;2023-04-01T15:09:00;98998.38;;;15.27;75.74
12868;BME280;33517;49.866;8.320;2023-04-01T15:12:05;99002.06;;;15.26;74.69
12868;BME280;33517;49.866;8.320;2023-04-01T15:15:16;99004.59;;;15.21;75.05
12868;BME280;33517;49.866;8.320;2023-04-01T15:18:18;99002.19;;;15.19;74.03
12868;BME280;33517;49.866;8.320;2023-04-01T15:21:21;99007.00;;;15.11;74.69
12868;BME280;33517;49.866;8.320;2023-04-01T15:24:21;99007.09;;;15.16;74.30
12868;BME280;33517;49.866;8.320;2023-04-01T15:27:33;99014.63;;;14.77;75.16
12868;BME280;33517;49.866;8.320;2023-04-01T15:30:36;99023.78;;;14.34;76.64
12868;BME280;33517;49.866;8.320;2023-04-01T15:33:41;99014.22;;;14.15;77.74
12868;BME280;33517;49.866;8.320;2023-04-01T15:36:41;99031.25;;;14.19;77.59
12868;BME280;33517;49.866;8.320;2023-04-01T15:39:45;99029.66;;;14.18;77.57
12868;BME280;33517;49.866;8.320;2023-04-01T15:42:49;99029.66;;;14.18;76.89
12868;BME280;33517;49.866;8.320;2023-04-01T15:45:51;99035.97;;;14.17;76.30
12868;BME280;33517;49.866;8.320;2023-04-01T15:48:59;99042.06;;;13.99;77.77
12868;BME280;33517;49.866;8.320;2023-04-01T15:51:59;99037.09;;;13.91;77.85
12868;BME280;33517;49.866;8.320;2023-04-01T15:55:13;99042.19;;;13.68;78.92
12868;BME280;33517;49.866;8.320;2023-04-01T15:58:34;99045.94;;;13.60;78.52
12868;BME280;33517;49.866;8.320;2023-04-01T16:01:37;99049.56;;;13.41;79.65
12868;BME280;33517;49.866;8.320;2023-04-01T16:04:46;99056.06;;;13.39;79.72
12868;BME280;33517;49.866;8.320;2023-04-01T16:07:47;99053.06;;;13.35;80.26
12868;BME280;33517;49.866;8.320;2023-04-01T16:10:55;99055.59;;;13.48;79.70
12868;BME280;33517;49.866;8.320;2023-04-01T16:13:57;99056.91;;;13.57;79.61
12868;BME280;33517;49.866;8.320;2023-04-01T16:17:00;99065.56;;;13.46;79.46
12868;BME280;33517;49.866;8.320;2023-04-01T16:20:01;99066.28;;;13.35;79.82
12868;BME280;33517;49.866;8.320;2023-04-01T16:22:58;99069.19;;;13.27;80.06
12868;BME280;33517;49.866;8.320;2023-04-01T16:25:55;99067.50;;;13.33;80.59
12868;BME280;33517;49.866;8.320;2023-04-01T16:28:54;99069.25;;;13.45;79.26
12868;BME280;33517;49.866;8.320;2023-04-01T16:31:50;99068.25;;;13.40;78.80
12868;BME280;33517;49.866;8.320;2023-04-01T16:34:47;99079.16;;;13.25;78.34
12868;BME280;33517;49.866;8.320;2023-04-01T16:37:49;99083.72;;;13.12;78.98